Time;durP1;ratioP1;P1;durP2;ratioP2;P2;SDS_P1;SDS_P2;PMS_P1;PMS_P2;Temp;Humidity;BMP_temperature;BMP_pressure;BME280_temperature;BME280_humidity;BME280_pressure;Samples;Min_cycle;Max_cycle;Signal;HPM_P1;HPM_P2
2023/07/28 00:01:20;;;;;;;3.90;3.43;;;16.50;99.90;;;;;;6171700;23;20421;-87
2023/07/28 00:03:47;;;;;;;3.40;3.20;;;16.50;99.90;;;;;;6162076;23;20490;-88
2023/07/28 00:06:14;;;;;;;3.53;3.23;;;16.50;99.90;;;;;;6182973;23;20508;-89
2023/07/28 00:08:43;;;;;;;4.50;4.10;;;16.50;99.90;;;;;;6185324;23;20465;-88
2023/07/28 00:11:12;;;;;;;4.40;4.00;;;16.50;99.90;;;;;;6185388;23;20404;-88
2023/07/28 00:13:39;;;;;;;5.97;5.10;;;16.50;99.90;;;;;;6184596;23;20417;-87
2023/07/28 00:16:06;;;;;;;5.23;4.80;;;16.60;99.90;;;;;;6165824;23;20460;-88
2023/07/28 00:18:34;;;;;;;5.47;4.97;;;16.50;99.90;;;;;;6164526;23;20488;-87
2023/07/28 00:21:01;;;;;;;6.83;5.33;;;16.50;99.90;;;;;;6161796;23;20446;-87
2023/07/28 00:23:31;;;;;;;7.80;5.43;;;16.50;99.90;;;;;;6162081;23;20479;-88
2023/07/28 00:25:58;;;;;;;6.53;5.93;;;16.80;99.90;;;;;;6161891;23;20438;-87
2023/07/28 00:28:25;;;;;;;6.30;5.67;;;16.50;99.90;;;;;;6161773;23;20795;-87
2023/07/28 00:30:52;;;;;;;6.03;5.53;;;16.50;99.90;;;;;;6170222;23;20441;-87
2023/07/28 00:33:19;;;;;;;7.40;6.80;;;16.60;99.90;;;;;;6183664;23;20399;-87
2023/07/28 00:35:47;;;;;;;7.23;6.63;;;16.60;99.90;;;;;;6184865;23;20437;-87
2023/07/28 00:38:14;;;;;;;7.80;7.10;;;16.80;99.90;;;;;;6176025;23;20405;-88
2023/07/28 00:40:41;;;;;;;9.73;8.40;;;16.60;99.90;;;;;;6164772;23;20439;-87
2023/07/28 00:43:08;;;;;;;9.20;8.40;;;16.60;99.90;;;;;;6165232;23;20515;-87
2023/07/28 00:45:38;;;;;;;9.27;8.47;;;16.60;99.90;;;;;;6183226;23;20430;-87
2023/07/28 00:48:11;;;;;;;8.97;8.13;;;16.60;99.90;;;;;;6183940;23;20709;-87
2023/07/28 00:50:38;;;;;;;10.40;8.37;;;16.60;99.90;;;;;;6184074;23;20407;-88
2023/07/28 00:53:07;;;;;;;9.13;7.57;;;16.60;99.90;;;;;;6168928;23;20437;-87
2023/07/28 00:55:34;;;;;;;8.07;7.27;;;16.60;99.90;;;;;;6176118;23;20449;-87
2023/07/28 00:58:01;;;;;;;14.03;8.40;;;16.70;99.90;;;;;;6166774;23;20467;-86
2023/07/28 01:00:28;;;;;;;7.80;7.00;;;16.60;99.90;;;;;;6185116;23;20452;-89
2023/07/28 01:02:55;;;;;;;8.27;7.47;;;16.80;99.90;;;;;;6184797;23;20428;-88
2023/07/28 01:05:27;;;;;;;9.60;7.53;;;16.90;99.90;;;;;;6185030;23;20433;-87
2023/07/28 01:08:01;;;;;;;6.77;6.07;;;16.60;99.90;;;;;;6184173;23;20465;-86
2023/07/28 01:10:33;;;;;;;5.57;5.10;;;16.70;99.90;;;;;;6178470;23;20398;-87
2023/07/28 01:12:59;;;;;;;7.10;5.50;;;16.70;99.90;;;;;;6167194;23;20490;-87
2023/07/28 01:15:26;;;;;;;6.87;5.03;;;16.70;99.90;;;;;;6165160;23;20904;-88
2023/07/28 01:17:53;;;;;;;4.60;4.30;;;16.80;99.90;;;;;;6165389;23;20441;-88
2023/07/28 01:20:23;;;;;;;6.40;5.17;;;16.70;99.90;;;;;;6164810;23;20446;-88
2023/07/28 01:23:09;;;;;;;5.07;4.67;;;16.70;99.90;;;;;;6165382;23;20948;-88
2023/07/28 01:25:56;;;;;;;5.60;4.70;;;16.80;99.90;;;;;;6163466;23;20411;-88
2023/07/28 01:28:25;;;;;;;4.20;3.90;;;16.80;99.90;;;;;;6165116;23;20398;-87
2023/07/28 01:30:52;;;;;;;4.17;3.80;;;16.80;99.90;;;;;;6161266;23;20414;-87
2023/07/28 01:33:19;;;;;;;4.50;4.20;;;17.10;99.90;;;;;;6161100;23;20398;-87
2023/07/28 01:35:46;;;;;;;4.77;4.37;;;16.80;99.90;;;;;;6165800;23;20423;-87
2023/07/28 01:38:13;;;;;;;8.80;3.80;;;16.80;99.90;;;;;;6164538;23;20449;-87
2023/07/28 01:40:40;;;;;;;5.60;5.00;;;16.80;99.90;;;;;;6164836;23;20411;-87
2023/07/28 01:43:09;;;;;;;4.40;4.00;;;16.80;99.90;;;;;;6165314;23;20534;-87
2023/07/28 01:45:37;;;;;;;4.60;4.20;;;16.80;99.90;;;;;;6161355;23;20435;-87
2023/07/28 01:48:05;;;;;;;5.80;4.03;;;16.90;99.90;;;;;;6161591;23;20503;-87
2023/07/28 01:50:31;;;;;;;6.73;4.90;;;16.90;99.90;;;;;;6160825;23;20447;-87
2023/07/28 01:52:59;;;;;;;6.83;4.10;;;16.90;99.90;;;;;;6160332;23;20441;-87
2023/07/28 01:55:25;;;;;;;5.23;4.73;;;16.90;99.90;;;;;;6182359;23;20423;-87
2023/07/28 01:57:58;;;;;;;4.43;4.03;;;16.90;99.90;;;;;;6182780;23;20396;-88
2023/07/28 02:00:26;;;;;;;5.37;4.40;;;16.90;99.90;;;;;;6177391;23;20402;-88
2023/07/28 02:02:55;;;;;;;9.83;5.37;;;;;;;;;;6162155;23;20458;-87
2023/07/28 02:05:25;;;;;;;4.67;3.80;;;16.90;99.90;;;;;;6160553;23;20449;-87
2023/07/28 02:07:52;;;;;;;4.93;4.53;;;15.80;99.90;;;;;;6183095;23;20427;-87
2023/07/28 02:10:19;;;;;;;3.77;3.47;;;17.10;99.90;;;;;;6182130;23;20477;-87
2023/07/28 02:12:45;;;;;;;5.73;4.57;;;16.90;99.90;;;;;;6170643;23;20442;-87
2023/07/28 02:15:13;;;;;;;5.20;4.70;;;16.90;99.90;;;;;;6161345;23;20463;-87
2023/07/28 02:17:40;;;;;;;7.70;4.57;;;16.90;99.90;;;;;;6160961;23;20466;-86
2023/07/28 02:20:12;;;;;;;6.17;5.30;;;16.90;99.90;;;;;;6161474;23;20411;-87
2023/07/28 02:22:43;;;;;;;6.50;5.83;;;16.60;99.90;;;;;;6162671;23;20764;-87
2023/07/28 02:25:10;;;;;;;7.13;4.77;;;16.90;99.90;;;;;;6163565;23;20438;-88
2023/07/28 02:27:38;;;;;;;6.43;5.40;;;16.90;99.90;;;;;;6160246;23;20468;-87
2023/07/28 02:30:06;;;;;;;10.23;4.80;;;17.00;99.90;;;;;;6159977;23;20415;-87
2023/07/28 02:32:33;;;;;;;6.07;5.30;;;17.00;99.90;;;;;;6160396;23;20742;-87
2023/07/28 02:35:01;;;;;;;5.27;4.10;;;;;;;;;;6159809;23;20436;-87
2023/07/28 02:37:29;;;;;;;7.73;5.07;;;17.00;99.90;;;;;;6167719;23;20471;-87
2023/07/28 02:39:56;;;;;;;5.70;4.93;;;17.00;99.90;;;;;;6180685;23;20483;-88
2023/07/28 02:42:23;;;;;;;5.90;5.00;;;17.00;99.90;;;;;;6182748;23;20407;-88
2023/07/28 02:44:50;;;;;;;9.90;4.73;;;17.30;99.90;;;;;;6183732;23;20430;-87
2023/07/28 02:47:17;;;;;;;6.37;5.53;;;16.90;99.90;;;;;;6182918;23;20407;-87
2023/07/28 02:49:47;;;;;;;6.20;5.60;;;17.00;99.90;;;;;;6181948;23;20418;-87
2023/07/28 02:52:14;;;;;;;7.77;5.63;;;17.00;99.90;;;;;;6180536;23;20429;-87
2023/07/28 02:54:42;;;;;;;7.17;5.90;;;17.00;99.90;;;;;;6180858;23;20440;-87
2023/07/28 02:57:11;;;;;;;5.83;5.23;;;16.90;99.90;;;;;;6181377;23;20411;-86
2023/07/28 02:59:37;;;;;;;8.40;6.33;;;17.30;99.90;;;;;;6183866;23;20395;-87
2023/07/28 03:02:05;;;;;;;8.60;5.93;;;17.00;99.90;;;;;;6184328;23;20409;-86
2023/07/28 03:04:31;;;;;;;7.87;5.67;;;17.00;99.90;;;;;;6180935;23;20449;-86
2023/07/28 03:06:58;;;;;;;9.20;6.17;;;17.00;99.90;;;;;;6180962;23;20735;-87
2023/07/28 03:09:25;;;;;;;7.40;5.90;;;17.00;99.90;;;;;;6173895;23;20396;-88
2023/07/28 03:11:53;;;;;;;7.27;5.40;;;17.00;99.90;;;;;;6171971;23;20443;-87
2023/07/28 03:14:20;;;;;;;10.27;5.40;;;17.00;99.90;;;;;;6183853;23;20423;-88
2023/07/28 03:16:47;;;;;;;8.60;5.30;;;17.00;99.90;;;;;;6185839;23;20415;-87
2023/07/28 03:19:14;;;;;;;7.10;5.53;;;17.70;99.90;;;;;;6185184;23;20402;-88
2023/07/28 03:21:41;;;;;;;7.67;5.40;;;17.00;99.90;;;;;;6167765;23;20407;-88
2023/07/28 03:24:07;;;;;;;6.63;5.00;;;16.70;99.90;;;;;;6161597;23;20442;-86
2023/07/28 03:26:34;;;;;;;5.90;5.17;;;17.00;99.90;;;;;;6161604;23;20418;-87
2023/07/28 03:29:03;;;;;;;8.50;5.13;;;17.00;99.90;;;;;;6161523;23;20462;-86
2023/07/28 03:31:29;;;;;;;7.20;5.07;;;17.00;99.90;;;;;;6161212;23;20922;-87
2023/07/28 03:33:56;;;;;;;7.40;5.90;;;17.00;99.90;;;;;;6160740;23;20404;-87
2023/07/28 03:36:23;;;;;;;7.80;6.10;;;17.00;99.90;;;;;;6161213;23;20415;-86
2023/07/28 03:38:50;;;;;;;8.03;5.83;;;17.00;99.90;;;;;;6161444;23;20952;-87
2023/07/28 03:41:17;;;;;;;9.83;7.07;;;17.00;99.90;;;;;;6161220;23;20447;-88
2023/07/28 03:43:47;;;;;;;7.67;6.20;;;17.00;99.90;;;;;;6161565;23;20524;-88
2023/07/28 03:46:15;;;;;;;10.20;5.80;;;17.10;99.90;;;;;;6160682;23;20430;-88
2023/07/28 03:48:42;;;;;;;7.73;5.67;;;17.40;99.90;;;;;;6161223;23;20418;-88
2023/07/28 03:51:09;;;;;;;9.03;6.90;;;17.10;99.90;;;;;;6173935;23;20395;-88
2023/07/28 03:53:36;;;;;;;8.47;6.63;;;17.10;99.90;;;;;;6185219;23;20406;-89
2023/07/28 03:56:04;;;;;;;12.30;6.97;;;17.10;99.90;;;;;;6185357;23;20437;-88
2023/07/28 03:58:31;;;;;;;14.50;6.33;;;17.10;99.90;;;;;;6162904;23;20420;-87
2023/07/28 04:00:57;;;;;;;9.00;6.17;;;17.10;99.90;;;;;;6160659;23;20418;-88
2023/07/28 04:03:26;;;;;;;11.83;6.27;;;17.40;99.90;;;;;;6161132;23;20501;-88
2023/07/28 04:05:53;;;;;;;7.80;6.13;;;17.10;99.90;;;;;;6167239;23;20432;-88
2023/07/28 04:08:19;;;;;;;9.30;7.33;;;17.00;99.90;;;;;;6180560;23;20862;-88
2023/07/28 04:10:46;;;;;;;13.07;7.77;;;17.00;99.90;;;;;;6184657;23;20428;-88
2023/07/28 04:13:13;;;;;;;9.97;7.27;;;17.10;99.90;;;;;;6166877;23;20391;-87
2023/07/28 04:15:40;;;;;;;8.80;7.40;;;17.20;99.90;;;;;;6159757;23;20825;-88
2023/07/28 04:18:07;;;;;;;8.33;6.70;;;17.10;99.90;;;;;;6158628;23;20933;-88
2023/07/28 04:20:35;;;;;;;7.20;5.67;;;17.40;99.90;;;;;;6158977;23;20486;-88
2023/07/28 04:23:02;;;;;;;8.70;6.70;;;17.70;99.90;;;;;;6158954;23;20530;-88
2023/07/28 04:25:31;;;;;;;11.93;8.33;;;17.20;99.90;;;;;;6159213;23;20427;-88
2023/07/28 04:27:58;;;;;;;9.33;7.93;;;17.20;99.90;;;;;;6163812;23;20420;-88
2023/07/28 04:30:25;;;;;;;13.03;10.43;;;17.20;99.90;;;;;;6162453;23;20397;-87
2023/07/28 04:32:52;;;;;;;13.47;10.40;;;17.00;99.90;;;;;;6184949;23;20428;-89
2023/07/28 04:35:19;;;;;;;10.00;8.07;;;17.30;99.90;;;;;;6185008;23;20424;-89
2023/07/28 04:37:47;;;;;;;9.77;7.90;;;17.20;99.90;;;;;;6184219;23;20395;-88
2023/07/28 04:40:16;;;;;;;7.83;7.03;;;17.20;99.90;;;;;;6174856;23;20431;-88
2023/07/28 04:42:44;;;;;;;9.70;7.73;;;17.10;99.90;;;;;;6174368;23;20423;-87
2023/07/28 04:45:11;;;;;;;10.60;6.97;;;17.30;99.90;;;;;;6165916;23;20466;-88
2023/07/28 04:47:39;;;;;;;8.07;7.27;;;17.30;99.90;;;;;;6174491;23;20913;-88
2023/07/28 04:50:06;;;;;;;12.00;8.40;;;17.30;99.90;;;;;;6171075;23;20486;-87
2023/07/28 04:52:34;;;;;;;11.07;7.50;;;;;;;;;;6166877;23;20420;-87
2023/07/28 04:55:02;;;;;;;10.40;8.10;;;17.50;99.90;;;;;;6164864;23;20442;-88
2023/07/28 04:57:29;;;;;;;17.10;8.03;;;17.30;99.90;;;;;;6160528;23;20446;-88
2023/07/28 04:59:56;;;;;;;8.50;7.60;;;17.10;99.90;;;;;;6160770;23;20450;-88
2023/07/28 05:02:23;;;;;;;9.00;6.70;;;17.30;99.90;;;;;;6160798;23;20449;-87
2023/07/28 05:04:49;;;;;;;8.63;7.70;;;17.30;99.90;;;;;;6160999;23;20478;-88
2023/07/28 08:02:45;;;;;;;3.43;3.13;;;19.10;99.90;;;;;;6167716;23;20444;-92
2023/07/28 08:06:18;;;;;;;;;;;;;;;;;;;;;
2023/07/28 08:56:05;;;;;;;2.90;2.50;;;;;;;;;;6156664;23;20517;-91
2023/07/28 08:58:33;;;;;;;3.07;2.87;;;;;;;;;;6204350;23;20396;-91
2023/07/28 09:01:02;;;;;;;2.47;2.37;;;;;;;;;;6204073;23;20423;-91
2023/07/28 09:03:31;;;;;;;3.07;2.87;;;;;;;;;;6202247;23;20483;-91
2023/07/28 09:06:01;;;;;;;2.83;2.23;;;19.50;99.90;;;;;;6198196;23;20437;-90
2023/07/28 09:08:39;;;;;;;3.00;2.90;;;;;;;;;;6211666;23;20402;-92
2023/07/28 09:11:09;;;;;;;3.77;3.47;;;19.80;99.90;;;;;;6205740;23;20400;-91
2023/07/28 09:13:38;;;;;;;7.87;5.63;;;;;;;;;;6206433;23;20399;-91
2023/07/28 09:16:07;;;;;;;5.50;5.00;;;;;;;;;;6208061;23;20443;-92
2023/07/28 11:20:30;;;;;;;1.63;1.53;;;;;;;;;;6161567;23;20457;-88
2023/07/28 11:22:59;;;;;;;1.97;1.67;;;20.80;1.00;;;;;;6228279;23;20433;-86
2023/07/28 11:25:28;;;;;;;3.10;2.60;;;21.10;99.90;;;;;;6225221;23;20438;-87
2023/07/28 11:27:55;;;;;;;2.10;2.00;;;20.90;1.00;;;;;;6227060;23;20476;-87
2023/07/28 11:30:23;;;;;;;2.07;1.97;;;20.60;1.00;;;;;;6225747;23;20484;-87
2023/07/28 11:32:51;;;;;;;2.03;1.77;;;20.40;1.00;;;;;;6224069;23;20410;-87
2023/07/28 11:35:19;;;;;;;3.07;2.87;;;19.80;99.90;;;;;;6225599;23;20430;-86
2023/07/28 11:37:50;;;;;;;1.97;1.87;;;19.70;99.90;;;;;;6229708;23;20494;-86
2023/07/28 11:40:20;;;;;;;2.90;1.97;;;19.40;99.90;;;;;;6232681;23;20834;-85
2023/07/28 11:42:49;;;;;;;3.10;2.73;;;19.30;99.90;;;;;;6240930;23;20447;-86
2023/07/28 11:45:19;;;;;;;3.40;3.10;;;18.80;99.90;;;;;;6230962;23;20495;-86
2023/07/28 11:47:59;;;;;;;3.13;2.87;;;19.10;99.90;;;;;;6223086;23;20403;-87
2023/07/28 11:50:28;;;;;;;2.60;2.40;;;19.10;99.90;;;;;;6224871;23;20487;-87
2023/07/28 11:52:57;;;;;;;3.53;3.23;;;19.20;99.90;;;;;;6223576;23;20812;-88
2023/07/28 11:55:25;;;;;;;2.57;2.37;;;;;;;;;;6220711;23;20908;-88
2023/07/28 11:57:53;;;;;;;5.23;3.37;;;19.30;99.90;;;;;;6220808;23;20420;-87
2023/07/28 12:00:27;;;;;;;3.10;2.80;;;19.20;99.90;;;;;;6220766;23;20521;-88
2023/07/28 12:03:04;;;;;;;4.40;4.00;;;19.30;99.90;;;;;;6221421;23;20395;-88
2023/07/28 12:05:32;;;;;;;3.93;3.50;;;19.50;99.90;;;;;;6220056;23;20436;-88
2023/07/28 12:08:00;;;;;;;4.30;4.00;;;19.60;99.90;;;;;;6220464;23;20470;-88
2023/07/28 12:10:27;;;;;;;4.53;4.20;;;;;;;;;;6220824;23;20992;-87
2023/07/28 12:12:55;;;;;;;8.47;7.67;;;;;;;;;;6220989;23;20406;-87
2023/07/28 12:15:30;;;;;;;5.00;4.60;;;20.00;99.90;;;;;;6224961;23;20403;-87
2023/07/28 12:18:13;;;;;;;6.37;5.67;;;20.20;99.90;;;;;;6240992;23;20358;-88
2023/07/28 12:20:46;;;;;;;3.67;3.37;;;20.20;99.90;;;;;;6240169;23;20441;-87
2023/07/28 12:23:15;;;;;;;3.07;2.87;;;20.20;99.90;;;;;;6240759;23;20399;-87
2023/07/28 12:25:43;;;;;;;2.83;2.63;;;;;;;;;;6225838;23;20493;-87
2023/07/28 12:28:10;;;;;;;3.17;2.90;;;20.00;99.90;;;;;;6222884;23;20421;-87
2023/07/28 12:30:38;;;;;;;2.73;2.53;;;19.80;99.90;;;;;;6221872;23;20472;-87
2023/07/28 12:33:05;;;;;;;2.47;2.27;;;20.30;99.90;;;;;;6220744;23;20408;-88
2023/07/28 12:35:34;;;;;;;2.90;2.70;;;20.30;99.90;;;;;;6220489;23;20410;-87
2023/07/28 12:38:03;;;;;;;2.47;2.00;;;20.30;99.90;;;;;;6220339;23;20406;-88
2023/07/28 12:40:33;;;;;;;2.33;2.13;;;20.30;99.90;;;;;;6225976;23;20947;-87
2023/07/28 12:43:01;;;;;;;2.47;2.27;;;20.30;99.90;;;;;;6220648;23;20496;-87
2023/07/28 12:45:29;;;;;;;2.37;2.17;;;20.20;99.90;;;;;;6220556;23;20497;-87
2023/07/28 12:47:57;;;;;;;3.27;2.60;;;20.10;99.90;;;;;;6220829;23;20493;-87
2023/07/28 12:50:25;;;;;;;3.80;3.07;;;20.10;99.90;;;;;;6222869;23;20431;-87
2023/07/28 12:52:52;;;;;;;2.97;2.70;;;20.20;99.90;;;;;;6226341;23;20418;-87
2023/07/28 12:55:20;;;;;;;2.90;2.70;;;20.10;99.90;;;;;;6224828;23;20413;-87
2023/07/28 12:57:49;;;;;;;3.60;3.20;;;20.20;99.90;;;;;;6225501;23;20414;-87
2023/07/28 13:00:16;;;;;;;2.93;2.73;;;20.50;99.90;;;;;;6221050;23;20426;-87
2023/07/28 13:02:45;;;;;;;2.60;2.40;;;;;;;;;;6220716;23;20406;-87
2023/07/28 13:05:13;;;;;;;2.70;2.50;;;20.40;99.90;;;;;;6221306;23;21031;-87
2023/07/28 13:07:41;;;;;;;2.80;2.60;;;20.40;99.90;;;;;;6222219;23;20782;-87
2023/07/28 13:10:11;;;;;;;2.73;2.53;;;20.60;99.90;;;;;;6221762;23;20430;-87
2023/07/28 13:12:39;;;;;;;3.67;3.37;;;;;;;;;;6220925;23;20414;-87
2023/07/28 13:15:08;;;;;;;2.90;2.70;;;;;;;;;;6235229;23;20429;-87
2023/07/28 13:17:35;;;;;;;2.80;2.60;;;20.60;1.00;;;;;;6243880;22;20412;-87
2023/07/28 13:20:03;;;;;;;3.00;2.70;;;20.30;99.90;;;;;;6243747;22;20441;-87
2023/07/28 13:22:30;;;;;;;2.90;2.47;;;;;;;;;;6244175;22;20389;-87
2023/07/28 13:24:57;;;;;;;3.00;2.70;;;;;;;;;;6236556;22;20492;-88
2023/07/28 13:27:24;;;;;;;2.80;2.60;;;;;;;;;;6220231;23;20451;-87
2023/07/28 13:29:51;;;;;;;4.07;3.70;;;;;;;;;;6225780;23;20501;-88
2023/07/28 13:32:24;;;;;;;4.30;3.90;;;21.00;1.00;;;;;;6225700;23;20453;-87
2023/07/28 13:34:52;;;;;;;3.73;3.43;;;;;;;;;;6225032;23;20386;-87
2023/07/28 13:37:20;;;;;;;3.33;3.10;;;21.00;1.00;;;;;;6223142;23;20410;-87
2023/07/28 13:39:47;;;;;;;3.40;3.10;;;;;;;;;;6222382;23;20426;-87
2023/07/28 13:42:15;;;;;;;3.73;3.43;;;;;;;;;;6223218;23;20409;-87
2023/07/28 13:44:42;;;;;;;3.20;3.00;;;20.60;1.00;;;;;;6241969;22;20457;-87
2023/07/28 13:47:09;;;;;;;3.23;2.93;;;20.90;99.90;;;;;;6242903;22;20402;-86
2023/07/28 13:49:38;;;;;;;3.80;3.50;;;;;;;;;;6242983;22;20422;-87
2023/07/28 13:52:06;;;;;;;3.07;2.87;;;20.80;92.40;;;;;;6236799;22;20414;-87
2023/07/28 13:54:33;;;;;;;3.60;3.30;;;20.80;1.00;;;;;;6226857;23;20402;-88
2023/07/28 13:56:59;;;;;;;3.20;2.93;;;20.80;76.80;;;;;;6221984;23;20426;-87
2023/07/28 13:59:26;;;;;;;4.20;3.23;;;20.90;93.80;;;;;;6220871;23;20430;-87
2023/07/28 14:01:55;;;;;;;3.23;3.03;;;21.30;1.00;;;;;;6231892;23;20405;-87
2023/07/28 14:04:22;;;;;;;2.63;2.43;;;21.00;1.00;;;;;;6243408;23;20447;-87
2023/07/28 14:06:50;;;;;;;3.90;3.00;;;21.20;1.00;;;;;;6243606;22;20398;-87
2023/07/28 14:09:17;;;;;;;2.83;2.63;;;21.20;1.00;;;;;;6243399;23;20521;-87
2023/07/28 14:11:44;;;;;;;2.93;2.73;;;;;;;;;;6243694;22;20402;-87
2023/07/28 14:14:11;;;;;;;4.27;3.70;;;;;;;;;;6240076;23;20414;-87
2023/07/28 14:16:38;;;;;;;7.27;5.27;;;21.30;1.00;;;;;;6228252;23;20484;-87
2023/07/28 14:19:05;;;;;;;3.17;2.97;;;;;;;;;;6224831;23;20438;-87
2023/07/28 14:21:32;;;;;;;4.10;3.80;;;21.10;1.00;;;;;;6222914;23;20409;-88
2023/07/28 14:24:01;;;;;;;2.90;2.70;;;20.70;96.20;;;;;;6224872;23;20413;-87
2023/07/28 14:26:29;;;;;;;2.70;2.60;;;;;;;;;;6227773;23;20805;-88
2023/07/28 14:28:55;;;;;;;2.33;2.20;;;21.10;1.00;;;;;;6233851;22;20441;-88
2023/07/28 14:31:22;;;;;;;2.50;2.23;;;21.20;15.90;;;;;;6227102;23;20413;-88
2023/07/28 14:33:49;;;;;;;3.10;2.90;;;21.30;1.00;;;;;;6226880;23;20445;-88
2023/07/28 14:36:17;;;;;;;2.60;2.40;;;21.50;1.00;;;;;;6234913;23;20474;-88
2023/07/28 14:38:44;;;;;;;3.30;2.90;;;;;;;;;;6228187;23;20800;-88
2023/07/28 14:41:12;;;;;;;2.70;2.50;;;21.70;1.00;;;;;;6225776;23;20412;-89
2023/07/28 14:43:39;;;;;;;3.33;3.03;;;;;;;;;;6226905;23;20401;-88
2023/07/28 14:46:06;;;;;;;3.07;2.80;;;;;;;;;;6224036;23;20444;-88
2023/07/28 14:48:34;;;;;;;2.30;2.20;;;21.40;99.90;;;;;;6222541;23;20489;-88
2023/07/28 14:51:01;;;;;;;2.53;2.33;;;21.80;1.00;;;;;;6224437;23;20970;-88
2023/07/28 14:53:35;;;;;;;2.50;2.40;;;21.80;1.00;;;;;;6228429;22;20410;-88
2023/07/28 14:56:03;;;;;;;2.83;2.40;;;21.80;1.00;;;;;;6222857;23;20477;-88
2023/07/28 14:58:32;;;;;;;3.20;2.30;;;21.60;1.00;;;;;;6224716;23;20450;-88
2023/07/28 15:00:59;;;;;;;3.50;3.00;;;22.00;99.90;;;;;;6223059;23;20441;-88
2023/07/28 15:03:28;;;;;;;3.70;2.70;;;22.00;99.90;;;;;;6223842;23;20414;-88
2023/07/28 15:05:55;;;;;;;2.93;2.73;;;22.00;99.90;;;;;;6224792;23;20520;-88
2023/07/28 15:08:22;;;;;;;2.40;2.20;;;21.80;99.90;;;;;;6228517;23;20420;-86
2023/07/28 15:10:49;;;;;;;3.63;2.00;;;22.10;1.00;;;;;;6230179;23;20397;-87
2023/07/28 15:13:16;;;;;;;2.87;2.67;;;22.10;1.00;;;;;;6232847;23;20426;-88
2023/07/28 15:15:45;;;;;;;2.87;2.57;;;22.00;34.60;;;;;;6234418;23;20413;-87
2023/07/28 15:18:12;;;;;;;2.80;2.60;;;;;;;;;;6234075;23;20450;-87
2023/07/28 15:20:40;;;;;;;2.87;2.67;;;22.00;99.90;;;;;;6231949;23;20780;-87
2023/07/28 15:23:07;;;;;;;2.77;2.57;;;;;;;;;;6229864;23;20662;-87
2023/07/28 15:25:34;;;;;;;2.80;2.60;;;21.80;1.00;;;;;;6228289;23;20501;-88
2023/07/28 15:28:01;;;;;;;2.97;2.77;;;21.90;1.00;;;;;;6225081;23;20464;-88
2023/07/28 15:30:29;;;;;;;2.77;2.57;;;22.00;99.90;;;;;;6225129;23;20455;-88
2023/07/28 15:32:58;;;;;;;5.60;2.80;;;22.00;99.90;;;;;;6228792;23;20413;-89
2023/07/28 15:35:25;;;;;;;2.50;2.30;;;22.00;1.00;;;;;;6233949;23;20399;-88
2023/07/28 15:37:52;;;;;;;4.23;3.87;;;22.00;99.90;;;;;;6223858;23;20409;-87
2023/07/28 15:40:18;;;;;;;5.13;4.60;;;22.00;99.90;;;;;;6225059;23;20426;-88
2023/07/28 15:42:45;;;;;;;4.13;3.83;;;22.00;1.00;;;;;;6223838;23;20472;-87
2023/07/28 15:45:13;;;;;;;4.20;3.07;;;22.00;1.00;;;;;;6224074;23;20904;-88
2023/07/28 15:47:40;;;;;;;3.53;3.33;;;21.90;1.00;;;;;;6222237;23;20407;-88
2023/07/28 15:50:10;;;;;;;3.87;3.50;;;22.20;1.00;;;;;;6222937;23;20460;-88
2023/07/28 15:52:37;;;;;;;2.97;2.77;;;;;;;;;;6223569;23;20418;-87
2023/07/28 15:55:04;;;;;;;3.40;3.20;;;21.80;1.00;;;;;;6224751;23;20434;-88
2023/07/28 15:57:31;;;;;;;3.50;3.20;;;21.70;99.90;;;;;;6223925;23;20463;-88
2023/07/28 15:59:58;;;;;;;3.53;3.23;;;21.70;1.00;;;;;;6223105;23;20457;-87
2023/07/28 16:02:25;;;;;;;4.23;3.40;;;;;;;;;;6224843;23;20494;-87
2023/07/28 16:04:52;;;;;;;3.30;3.10;;;21.60;1.00;;;;;;6234693;22;20410;-87
2023/07/28 16:07:22;;;;;;;3.73;3.13;;;21.60;1.00;;;;;;6244838;22;20395;-87
2023/07/28 16:09:49;;;;;;;5.03;3.70;;;21.60;99.90;;;;;;6245116;22;20421;-87
2023/07/28 16:12:16;;;;;;;3.27;2.97;;;;;;;;;;6245387;22;20379;-86
2023/07/28 16:14:43;;;;;;;4.10;3.80;;;;;;;;;;6240526;22;20470;-88
2023/07/28 16:17:10;;;;;;;3.53;3.33;;;;;;;;;;6236074;23;20413;-88
2023/07/28 16:19:37;;;;;;;3.70;3.50;;;21.60;99.90;;;;;;6233949;23;20433;-88
2023/07/28 16:22:04;;;;;;;3.77;3.43;;;21.60;26.90;;;;;;6229266;23;20410;-88
2023/07/28 16:24:32;;;;;;;3.90;3.60;;;21.60;1.00;;;;;;6230359;23;20434;-88
2023/07/28 16:27:00;;;;;;;3.90;3.70;;;;;;;;;;6229216;23;20505;-88
2023/07/28 16:29:26;;;;;;;3.53;3.30;;;21.50;1.00;;;;;;6227565;23;20426;-88
2023/07/28 16:31:53;;;;;;;5.53;3.53;;;21.50;1.80;;;;;;6226777;23;20493;-88
2023/07/28 16:34:20;;;;;;;5.70;5.20;;;21.40;99.90;;;;;;6224884;23;20741;-88
2023/07/28 16:36:48;;;;;;;6.10;4.90;;;21.50;1.00;;;;;;6222105;23;20430;-88
2023/07/28 16:39:15;;;;;;;6.50;5.90;;;21.50;99.90;;;;;;6233168;23;20434;-88
2023/07/28 16:41:44;;;;;;;4.70;4.27;;;21.40;99.90;;;;;;6228297;23;20488;-88
2023/07/28 16:44:11;;;;;;;5.87;5.20;;;21.30;99.90;;;;;;6222282;23;20946;-88
2023/07/28 16:46:37;;;;;;;8.03;7.27;;;21.20;99.90;;;;;;6223819;22;20499;-88
2023/07/28 16:49:04;;;;;;;9.93;8.90;;;21.30;99.90;;;;;;6222397;23;20423;-87
2023/07/28 16:51:34;;;;;;;7.97;7.17;;;;;;;;;;6223639;23;20407;-88
2023/07/28 16:54:01;;;;;;;7.43;5.80;;;21.20;99.90;;;;;;6223757;23;20409;-88
2023/07/28 16:56:28;;;;;;;5.20;4.70;;;;;;;;;;6225118;23;20402;-88
2023/07/28 16:58:56;;;;;;;5.00;4.57;;;21.10;99.90;;;;;;6230769;22;20550;-88
2023/07/28 17:01:23;;;;;;;4.73;4.43;;;;;;;;;;6223345;23;20410;-88
2023/07/28 17:03:51;;;;;;;18.13;13.80;;;;;;;;;;6222986;23;20456;-88
2023/07/28 17:06:18;;;;;;;6.43;5.90;;;;;;;;;;6223734;23;20441;-88
2023/07/28 17:08:45;;;;;;;4.80;4.37;;;;;;;;;;6223224;23;20426;-88
2023/07/28 17:11:12;;;;;;;5.00;4.50;;;;;;;;;;6222064;23;20436;-88
2023/07/28 17:13:39;;;;;;;4.47;4.07;;;20.80;1.00;;;;;;6222217;23;20976;-88
2023/07/28 17:16:07;;;;;;;3.70;3.50;;;21.00;99.90;;;;;;6225149;23;20402;-89
2023/07/28 17:18:35;;;;;;;5.73;5.20;;;;;;;;;;6232623;23;20406;-88
2023/07/28 19:31:23;;;;;;;12.60;10.07;;;;;;;;;;6129517;23;20484;-90
2023/07/28 19:33:50;;;;;;;6.63;6.03;;;;;;;;;;6144902;23;20401;-90
2023/07/28 19:36:19;;;;;;;7.37;6.57;;;;;;;;;;6156046;23;20401;-89
2023/07/28 19:38:46;;;;;;;7.23;6.53;;;19.70;99.90;;;;;;6148250;23;20425;-89
2023/07/28 19:41:16;;;;;;;6.97;6.37;;;;;;;;;;6140202;23;20433;-92
2023/07/28 19:43:44;;;;;;;6.03;5.53;;;19.70;99.90;;;;;;6138498;23;20401;-90
2023/07/28 19:46:11;;;;;;;5.40;4.90;;;;;;;;;;6152615;23;20452;-91
2023/07/28 19:48:40;;;;;;;6.20;5.53;;;;;;;;;;6137868;23;20417;-89
2023/07/28 19:51:08;;;;;;;7.03;5.60;;;;;;;;;;6139653;23;20440;-90
2023/07/28 19:53:38;;;;;;;12.30;10.20;;;19.60;99.90;;;;;;6138743;23;20417;-89
2023/07/28 19:56:05;;;;;;;7.77;7.07;;;19.50;99.90;;;;;;6137520;23;20915;-89
2023/07/28 19:58:33;;;;;;;5.93;5.43;;;;;;;;;;6140918;23;20413;-90
2023/07/28 20:01:00;;;;;;;6.30;5.70;;;;;;;;;;6136888;23;20457;-89
2023/07/28 20:03:27;;;;;;;7.83;6.33;;;19.40;99.90;;;;;;6137974;23;20443;-89
2023/07/28 20:05:55;;;;;;;7.07;5.70;;;19.30;99.90;;;;;;6141505;23;20433;-89
2023/07/28 20:08:22;;;;;;;7.73;6.93;;;19.50;99.90;;;;;;6155164;23;20400;-88
2023/07/28 20:10:49;;;;;;;9.50;5.10;;;19.30;99.90;;;;;;6155710;23;20406;-90
2023/07/28 20:13:16;;;;;;;7.20;6.50;;;19.30;99.90;;;;;;6155613;23;20400;-90
2023/07/28 20:15:52;;;;;;;7.00;6.30;;;19.40;99.90;;;;;;6153563;23;20381;-91
2023/07/28 20:18:20;;;;;;;8.53;7.73;;;19.20;99.90;;;;;;6155400;23;20405;-90
2023/07/28 20:20:48;;;;;;;8.53;7.00;;;19.30;99.90;;;;;;6151352;23;20433;-91
2023/07/28 20:23:19;;;;;;;6.20;5.60;;;19.10;99.90;;;;;;6141133;23;20413;-91
2023/07/28 20:25:46;;;;;;;7.47;6.77;;;;;;;;;;6138278;23;20470;-90
2023/07/28 20:28:14;;;;;;;6.77;6.17;;;19.20;99.90;;;;;;6136332;23;20405;-90
2023/07/28 20:30:42;;;;;;;7.83;7.13;;;;;;;;;;6146638;23;20468;-90
2023/07/28 20:33:09;;;;;;;7.00;6.30;;;19.20;99.90;;;;;;6166535;23;20408;-89
2023/07/28 20:35:36;;;;;;;6.50;5.80;;;19.20;99.90;;;;;;6165542;23;20894;-90
2023/07/28 20:38:03;;;;;;;6.80;6.20;;;19.30;99.90;;;;;;6168098;23;20407;-89
2023/07/28 20:40:32;;;;;;;6.00;5.43;;;19.10;99.90;;;;;;6167543;23;20492;-90
2023/07/28 20:42:59;;;;;;;7.90;6.13;;;19.10;99.90;;;;;;6167051;23;20407;-91
2023/07/28 20:45:26;;;;;;;7.77;6.97;;;19.10;99.90;;;;;;6170550;23;20408;-89
2023/07/28 20:47:53;;;;;;;7.23;6.53;;;19.00;99.90;;;;;;6175841;23;20748;-89
2023/07/28 20:50:20;;;;;;;7.50;5.97;;;19.00;99.90;;;;;;6180916;23;20435;-89
2023/07/28 20:52:47;;;;;;;10.67;7.00;;;19.00;99.90;;;;;;6178508;23;20404;-89
2023/07/28 20:55:14;;;;;;;7.20;6.30;;;19.10;99.90;;;;;;6172802;23;20435;-89
2023/07/28 20:57:43;;;;;;;9.43;7.10;;;19.10;99.90;;;;;;6169336;23;20397;-89
2023/07/28 21:00:10;;;;;;;9.30;7.43;;;19.20;99.90;;;;;;6168755;23;20428;-89
2023/07/28 21:02:38;;;;;;;10.30;9.30;;;;;;;;;;6169853;23;20428;-90
2023/07/28 21:05:06;;;;;;;8.87;7.70;;;19.10;99.90;;;;;;6170623;23;20412;-90
2023/07/28 21:07:34;;;;;;;10.60;7.90;;;;;;;;;;6172207;23;20440;-90